Time;durP1;ratioP1;P1;durP2;ratioP2;P2;SDS_P1;SDS_P2;PMS_P1;PMS_P2;Temp;Humidity;BMP_temperature;BMP_pressure;BME280_temperature;BME280_humidity;BME280_pressure;Samples;Min_cycle;Max_cycle;Signal;HPM_P1;HPM_P2
2022/05/07 00:07:30;;;;;;;24.60;12.32;;;;;;;9.47;67.61;100821.03;30996661;28;96765;-77
2022/05/07 00:22:31;;;;;;;21.90;11.13;;;;;;;9.24;68.50;100811.75;30993884;28;100364;-78
2022/05/07 00:37:31;;;;;;;22.27;13.23;;;;;;;9.07;69.88;100816.84;30994799;28;96727;-76
2022/05/07 00:52:32;;;;;;;21.33;14.68;;;;;;;8.90;70.69;100814.94;30993548;28;96701;-77
2022/05/07 01:07:34;;;;;;;19.27;12.00;;;;;;;8.80;70.79;100822.94;30991647;28;99032;-76
2022/05/07 01:22:35;;;;;;;20.40;12.27;;;;;;;8.60;71.18;100811.53;30990900;28;96615;-77
2022/05/07 01:37:35;;;;;;;21.83;13.63;;;;;;;8.42;71.79;100803.38;30989986;28;96856;-78
2022/05/07 01:52:36;;;;;;;34.33;17.48;;;;;;;8.36;73.45;100804.78;30987584;28;97096;-77
2022/05/07 02:07:36;;;;;;;28.70;17.55;;;;;;;8.18;74.63;100798.53;30986393;28;96772;-76
2022/05/07 02:22:37;;;;;;;23.92;15.27;;;;;;;8.24;74.67;100796.16;30983972;28;96847;-77
2022/05/07 02:37:37;;;;;;;30.87;17.63;;;;;;;8.44;75.02;100796.13;30983503;28;96758;-78
2022/05/07 02:52:38;;;;;;;34.33;15.82;;;;;;;8.44;75.15;100790.81;30982659;28;97452;-77
2022/05/07 03:07:38;;;;;;;37.45;16.77;;;;;;;8.52;74.65;100798.13;30979847;28;96608;-78
2022/05/07 03:22:39;;;;;;;37.50;15.93;;;;;;;8.46;74.14;100795.03;30976667;28;109630;-78
2022/05/07 03:37:39;;;;;;;27.55;16.17;;;;;;;8.52;74.46;100798.94;30974727;28;97550;-75
2022/05/07 04:07:59;;;;;;;26.40;14.23;;;;;;;9.25;73.30;100818.75;30973317;28;97075;-77
2022/05/07 04:22:59;;;;;;;25.15;16.38;;;;;;;9.38;72.92;100821.91;30970489;28;105817;-76
2022/05/07 04:38:00;;;;;;;25.10;16.63;;;;;;;9.75;72.61;100831.66;30970956;28;96825;-76
2022/05/07 04:53:01;;;;;;;24.83;15.88;;;;;;;10.18;71.39;100831.94;30989912;28;99196;-76
2022/05/07 05:08:01;;;;;;;26.97;16.63;;;;;;;10.63;71.19;100839.03;30989906;28;97331;-76
2022/05/07 05:23:02;;;;;;;21.58;15.60;;;;;;;11.34;70.75;100846.94;30986001;28;96696;-77
2022/05/07 05:38:02;;;;;;;22.60;17.10;;;;;;;12.34;68.12;100857.81;30986489;28;97783;-77
2022/05/07 05:53:03;;;;;;;24.92;15.00;;;;;;;13.08;66.92;100864.97;30983037;28;96768;-76
2022/05/07 06:08:03;;;;;;;20.05;15.43;;;;;;;13.88;65.00;100877.41;30982280;28;97267;-77
2022/05/07 06:23:04;;;;;;;29.40;17.10;;;;;;;14.35;63.87;100891.72;30980800;28;97597;-76
2022/05/07 06:38:05;;;;;;;23.95;17.58;;;;;;;14.78;62.48;100901.97;30980430;28;96698;-80
2022/05/07 06:53:05;;;;;;;24.48;16.75;;;;;;;14.98;61.40;100902.31;30978422;28;96681;-76
2022/05/07 07:08:06;;;;;;;22.50;16.77;;;;;;;15.60;59.57;100910.25;30976522;28;96718;-68
2022/05/07 07:23:10;;;;;;;29.58;20.75;;;;;;;16.43;57.20;100905.47;30967533;28;97200;-77
2022/05/07 07:38:11;;;;;;;21.13;13.77;;;;;;;18.07;52.62;100901.66;30946486;28;97585;-75
2022/05/07 07:53:12;;;;;;;16.63;12.07;;;;;;;19.31;48.81;100901.34;30969763;28;97309;-78
2022/05/07 08:23:31;;;;;;;13.83;8.43;;;;;;;23.21;38.89;100904.69;30978167;28;97336;-67
2022/05/07 08:38:32;;;;;;;11.00;7.17;;;;;;;24.49;34.56;100892.84;30982958;28;97228;-67
2022/05/07 08:53:33;;;;;;;6.97;4.77;;;;;;;25.41;31.52;100888.03;30980399;28;97304;-67
2022/05/07 09:08:33;;;;;;;13.23;5.50;;;;;;;25.56;29.68;100886.56;30941620;28;97652;-72
2022/05/07 09:23:34;;;;;;;9.63;5.20;;;;;;;25.54;28.82;100875.09;30863895;28;96796;-72
2022/05/07 09:38:34;;;;;;;7.32;4.13;;;;;;;26.00;27.44;100867.44;30860326;28;101693;-73
2022/05/07 10:09:15;;;;;;;8.43;3.27;;;;;;;24.37;27.89;100849.31;30861840;28;97070;-74
2022/05/07 10:24:19;;;;;;;5.40;3.27;;;;;;;25.73;26.63;100838.22;30858455;28;96952;-73
2022/05/07 10:39:19;;;;;;;4.63;3.07;;;;;;;27.72;23.29;100830.06;30858267;28;97539;-75
2022/05/07 10:54:26;;;;;;;5.78;2.70;;;;;;;28.76;22.18;100813.47;30856768;28;98688;-75
2022/05/07 11:09:26;;;;;;;4.33;2.20;;;;;;;27.44;22.12;100789.22;30855195;28;96631;-74
2022/05/07 11:24:28;;;;;;;3.17;2.03;;;;;;;27.03;22.50;100787.13;30852930;28;96813;-75
2022/05/07 11:39:30;;;;;;;5.87;2.60;;;;;;;28.08;21.62;100769.94;30853112;28;97292;-74
2022/05/07 11:54:30;;;;;;;5.50;2.53;;;;;;;28.06;21.50;100763.91;30859941;28;110934;-74
2022/05/07 12:09:33;;;;;;;5.72;2.55;;;;;;;27.61;21.67;100767.13;30872671;28;107514;-75
2022/05/07 12:39:52;;;;;;;7.67;2.37;;;;;;;27.94;21.71;100737.59;30871284;28;96634;-74
2022/05/07 12:54:52;;;;;;;6.20;3.22;;;;;;;27.64;21.37;100733.72;30868447;28;100948;-74
2022/05/07 13:09:53;;;;;;;5.15;2.38;;;;;;;28.95;20.48;100728.69;30864850;28;96816;-78
2022/05/07 13:24:53;;;;;;;6.05;2.38;;;;;;;29.32;20.42;100710.97;30863366;28;103547;-75
2022/05/07 13:39:56;;;;;;;6.10;2.75;;;;;;;29.02;20.00;100693.53;30863605;28;96670;-80
2022/05/07 13:54:56;;;;;;;5.43;2.67;;;;;;;26.25;22.55;100694.84;30862878;28;96863;-80
2022/05/07 14:09:57;;;;;;;4.50;2.20;;;;;;;25.51;22.80;100680.84;30860847;28;97501;-74
2022/05/07 14:25:00;;;;;;;5.27;2.63;;;;;;;24.85;23.24;100675.50;30858393;28;96808;-80
2022/05/07 14:40:28;;;;;;;4.07;2.30;;;;;;;24.43;23.92;100659.66;30874811;28;98066;-87
2022/05/07 14:55:21;;;;;;;6.13;2.40;;;;;;;23.90;24.95;100650.97;30857892;28;97353;-76
2022/05/07 15:10:36;;;;;;;5.17;2.50;;;;;;;23.11;25.74;100647.09;30857168;28;97645;-83
2022/05/07 15:25:37;;;;;;;4.70;2.30;;;;;;;22.64;26.82;100638.03;30857301;28;96717;-79
2022/05/07 15:40:37;;;;;;;5.60;2.00;;;;;;;22.28;27.23;100631.81;30865129;28;101902;-83
2022/05/07 15:55:38;;;;;;;9.03;2.70;;;;;;;21.69;28.11;100623.66;30859228;28;96799;-87
2022/05/07 16:10:39;;;;;;;5.60;2.70;;;;;;;21.37;28.62;100614.97;30874574;28;97335;-81
2022/05/07 16:25:40;;;;;;;4.83;2.37;;;;;;;21.12;29.15;100602.41;30907470;28;100639;-76
2022/05/07 16:40:40;;;;;;;6.88;2.60;;;;;;;20.72;30.24;100595.66;30910809;28;97362;-82
2022/05/07 16:55:40;;;;;;;8.20;2.63;;;;;;;20.27;31.84;100604.88;30868121;28;96893;-77
2022/05/07 17:10:41;;;;;;;9.65;2.90;;;;;;;19.77;32.32;100597.63;30864796;28;96757;-80
2022/05/07 17:25:41;;;;;;;6.03;3.00;;;;;;;19.45;33.36;100603.06;30863624;28;111200;-79
2022/05/07 17:40:42;;;;;;;13.50;8.63;;;;;;;19.13;34.58;100615.75;30862489;28;97304;-85
2022/05/07 17:55:42;;;;;;;15.65;8.85;;;;;;;18.71;35.25;100628.78;30860001;28;97064;-83
2022/05/07 18:10:42;;;;;;;21.55;12.15;;;;;;;18.12;36.64;100633.28;30860130;28;106775;-84
2022/05/07 18:25:43;;;;;;;12.30;6.35;;;;;;;17.61;37.70;100653.59;30859041;28;97330;-79
2022/05/07 18:42:47;;;;;;;8.55;5.43;;;;;;;17.16;38.93;100665.69;30864341;28;100473;-79
2022/05/07 19:11:35;;;;;;;15.17;8.23;;;;;;;16.19;41.17;100684.38;30854334;28;96924;-81
2022/05/07 19:26:36;;;;;;;9.07;5.33;;;;;;;15.86;42.73;100676.88;30852531;28;96754;-82
2022/05/07 19:41:37;;;;;;;10.53;4.80;;;;;;;15.42;44.59;100691.31;30851992;28;98453;-81
2022/05/07 19:56:37;;;;;;;13.27;6.20;;;;;;;15.08;45.29;100695.44;30851037;28;96805;-82
2022/05/07 20:11:40;;;;;;;16.83;8.57;;;;;;;14.83;46.27;100693.06;30853287;28;96802;-81
2022/05/07 20:26:40;;;;;;;15.70;9.47;;;;;;;14.64;46.76;100697.13;30869770;28;96922;-80
2022/05/07 20:41:42;;;;;;;18.70;11.65;;;;;;;14.37;48.13;100707.44;30868903;28;97004;-74
2022/05/07 20:56:42;;;;;;;15.10;9.57;;;;;;;14.09;49.45;100709.03;30868737;28;96875;-75
2022/05/07 21:11:45;;;;;;;21.73;10.18;;;;;;;13.76;49.79;100725.34;30866492;28;97270;-82
2022/05/07 21:26:46;;;;;;;15.77;9.30;;;;;;;13.44;50.43;100725.38;30868804;28;96727;-83
2022/05/07 21:41:46;;;;;;;16.05;9.30;;;;;;;13.25;51.49;100726.63;30864765;28;97009;-79
2022/05/07 21:56:49;;;;;;;17.80;11.30;;;;;;;12.97;53.20;100731.59;30863480;28;112228;-82
2022/05/07 22:11:50;;;;;;;16.77;12.13;;;;;;;12.78;54.15;100730.13;30861220;28;97868;-82
2022/05/07 22:26:50;;;;;;;13.47;10.20;;;;;;;12.69;54.83;100729.34;30863039;28;98567;-78
2022/05/07 22:41:50;;;;;;;16.33;12.40;;;;;;;12.37;55.89;100731.06;30859317;28;112868;-82
2022/05/07 22:56:51;;;;;;;28.00;10.50;;;;;;;12.00;57.87;100733.25;30857460;28;98805;-78
2022/05/07 23:11:51;;;;;;;16.23;10.90;;;;;;;11.75;58.74;100735.00;30856042;28;96864;-79
2022/05/07 23:26:51;;;;;;;20.08;13.13;;;;;;;11.47;59.29;100727.28;30856083;28;117709;-78
2022/05/07 23:41:52;;;;;;;18.92;11.63;;;;;;;11.17;60.31;100739.38;30855202;28;96726;-76
2022/05/07 23:56:52;;;;;;;19.17;13.25;;;;;;;10.99;61.38;100734.97;30872831;28;96582;-75
